Bookmark and Share
Track history (hours):
 

Norwegian Crown

Operator: Norwegian Cruise Line

Last reported at 2014-Apr-22 19:33 UTC. Time now 2014-Apr-24 14:03 UTC.
Position N 50°29' W 001°10'.

Type: Passenger vessel. MMSI: 308785000.

NotesDate/timePositionNaut miles runAvg speedWind from/ knotsBaromVisibWave heightAir tempDewpointWater temp
2014-Apr-22 19:33N 50°29' W 001°10'1515.2
2014-Apr-22 18:33N 50°42' W 000°58'1313.4
2014-Apr-22 17:33N 50°47' W 001°18'8 8.3
2014-Apr-22 16:33N 50°54' W 001°25'0 0.0
2014-Apr-22 15:33N 50°54' W 001°25'0 0.0
2014-Apr-22 14:33N 50°54' W 001°25'0 0.0
2014-Apr-22 13:34N 50°54' W 001°25'0 0.0
2014-Apr-22 12:33N 50°54' W 001°25'0 0.0
2014-Apr-22 11:33N 50°54' W 001°25'0 0.0
2014-Apr-22 10:33N 50°54' W 001°25'0 0.0
2014-Apr-22 09:33N 50°54' W 001°25'0 0.0
2014-Apr-22 08:33N 50°54' W 001°25'5 4.9
2014-Apr-22 07:33N 50°51' W 001°20'9 8.8
2014-Apr-22 06:34N 50°46' W 001°08'1312.7
2014-Apr-22 05:33N 50°38' W 000°52'6 5.7
2014-Apr-22 04:33N 50°35' W 000°44'5 4.8
2014-Apr-22 03:33N 50°34' W 000°37'8 7.8
2014-Apr-22 02:33N 50°33' W 000°25'1414.4
2014-Apr-22 01:33N 50°32' W 000°02'1414.0
2014-Apr-22 00:33N 50°36' E 000°19'1515.0
2014-Apr-21 23:33N 50°41' E 000°41'1716.8
2014-Apr-21 22:33N 50°51' E 001°03'1817.6
2014-Apr-21 21:33N 51°02' E 001°24'1616.3
2014-Apr-21 20:34N 51°12' E 001°44'1615.4
2014-Apr-21 19:33N 51°26' E 001°57'1414.5
2014-Apr-21 18:33N 51°20' E 002°19'1514.6
2014-Apr-21 17:33N 51°23' E 002°42'1413.8
2014-Apr-21 16:34N 51°24' E 003°04'1413.8
2014-Apr-21 15:33N 51°25' E 003°26'1110.7
2014-Apr-21 14:33N 51°23' E 003°43'1211.5
2014-Apr-21 13:33N 51°26' E 004°01'1111.3
2014-Apr-21 12:34N 51°20' E 004°16'8 8.2
2014-Apr-21 11:33N 51°13' E 004°24'0 0.3
2014-Apr-21 10:33N 51°13' E 004°24'0 0.0
2014-Apr-21 09:33N 51°13' E 004°24'0 0.0
2014-Apr-21 08:32N 51°13' E 004°24'0 0.0
2014-Apr-21 07:32N 51°13' E 004°24'0 0.0
2014-Apr-21 06:31N 51°13' E 004°24'0 0.0
2014-Apr-21 05:31N 51°13' E 004°24'0 0.0
2014-Apr-21 04:31N 51°13' E 004°24'0 0.0
2014-Apr-21 03:33N 51°13' E 004°24'0 0.0
2014-Apr-21 02:33N 51°13' E 004°24'0 0.0
2014-Apr-21 01:32N 51°13' E 004°24'0 0.0
2014-Apr-21 00:32N 51°13' E 004°24'0 0.0
2014-Apr-20 23:31N 51°13' E 004°24'0 0.0
2014-Apr-20 22:31N 51°13' E 004°24'0 0.0
2014-Apr-20 21:31N 51°13' E 004°24'0 0.0
2014-Apr-20 20:33N 51°13' E 004°24'0 0.0
2014-Apr-20 19:33N 51°13' E 004°24'0 0.0
2014-Apr-20 18:32N 51°13' E 004°24'0 0.0
2014-Apr-20 17:32N 51°13' E 004°24'0 0.0
2014-Apr-20 16:31N 51°13' E 004°24'0 0.0
2014-Apr-20 15:31N 51°13' E 004°24'0 0.0
2014-Apr-20 14:31N 51°13' E 004°24'0 0.0
2014-Apr-20 13:33N 51°13' E 004°24'0 0.0
2014-Apr-20 12:33N 51°13' E 004°24'0 0.1
2014-Apr-20 11:33N 51°13' E 004°24'5 4.6
2014-Apr-20 10:33N 51°17' E 004°19'15 7.6
2014-Apr-20 08:33N 51°23' E 003°57'9 9.3
2014-Apr-20 07:33N 51°25' E 003°42'9 9.2
2014-Apr-20 06:34N 51°25' E 003°28'1514.8
2014-Apr-20 05:33N 51°24' E 003°04'1514.7
2014-Apr-20 04:34N 51°22' E 002°41'1615.7
2014-Apr-20 03:33N 51°17' E 002°17'1716.8
2014-Apr-20 02:33N 51°09' E 001°54'5215.7
2014-Apr-19 23:17N 50°31' E 000°59'1216.0
2014-Apr-19 22:33N 50°29' E 000°41'3615.1
2014-Apr-19 20:09N 50°24' W 000°16'915.2
2014-Apr-19 19:34N 50°28' W 000°29'1514.6
2014-Apr-19 18:33N 50°36' W 000°48'1212.1
2014-Apr-19 17:33N 50°44' W 001°03'1211.6
2014-Apr-19 16:34N 50°50' W 001°18'6 6.0
2014-Apr-19 15:33N 50°54' W 001°25'0 0.0
2014-Apr-19 14:31N 50°54' W 001°25'0 0.0
2014-Apr-19 13:33N 50°54' W 001°25'0 0.0
2014-Apr-19 12:33N 50°54' W 001°25'0 0.0
2014-Apr-19 11:32N 50°54' W 001°25'0 0.0
2014-Apr-19 10:32N 50°54' W 001°25'0 0.0
2014-Apr-19 09:32N 50°54' W 001°25'0 0.0
2014-Apr-19 08:31N 50°54' W 001°25'0 0.0
2014-Apr-19 07:31N 50°54' W 001°25'0 0.0
2014-Apr-19 06:33N 50°54' W 001°25'0 0.0
2014-Apr-19 05:33N 50°54' W 001°25'0 0.0
2014-Apr-19 04:33N 50°54' W 001°25'4 4.4
2014-Apr-19 03:34N 50°51' W 001°20'1111.0
2014-Apr-19 02:34N 50°45' W 001°06'1212.1
2014-Apr-19 01:33N 50°34' W 000°58'9 9.0
2014-Apr-19 00:33N 50°26' W 001°06'1212.1
2014-Apr-18 23:33N 50°24' W 001°24'1414.1
2014-Apr-18 22:33N 50°22' W 001°46'  
2014-Apr-15 22:33N 38°31' W 023°53'1716.8
2014-Apr-15 21:33N 38°20' W 024°09'1716.6
2014-Apr-15 20:34N 38°09' W 024°26'1716.7
2014-Apr-15 19:33N 37°59' W 024°42'1716.9
2014-Apr-15 18:33N 37°48' W 024°59'1616.2
2014-Apr-15 17:33N 37°41' W 025°17'1716.5
2014-Apr-15 16:33N 37°43' W 025°38'2 1.8
2014-Apr-15 15:31N 37°44' W 025°40'0 0.0
2014-Apr-15 14:33N 37°44' W 025°40'0 0.0
2014-Apr-15 12:34N 37°44' W 025°40'0 0.0
2014-Apr-15 11:34N 37°44' W 025°40'0 0.0
2014-Apr-15 10:34N 37°44' W 025°40'0 0.0
2014-Apr-15 09:34N 37°44' W 025°40'0 0.0
2014-Apr-15 08:34N 37°44' W 025°40'0 0.0
2014-Apr-15 07:34N 37°44' W 025°40'0 0.0
2014-Apr-15 06:34N 37°44' W 025°40'4 4.1
2014-Apr-15 05:34N 37°41' W 025°43'2713.4
2014-Apr-15 03:34N 37°27' W 026°12'1616.0
2014-Apr-15 02:34N 37°19' W 026°29'1615.8
2014-Apr-15 01:34N 37°11' W 026°46'1515.0
2014-Apr-15 00:34N 37°03' W 027°03'1110.6
2014-Apr-14 23:34N 36°58' W 027°14'  

Dump ship's entire track history

sailing weather and tide predictions

Norwegian Crown — C6II4 — position and weather